Fenelon Falls, Canada
Current Conditions -  °F | °C
As of 11:00 PM on Tuesday 21 Oct 2014 (Local Time) from CYPQ Reporting Station
Overcast Overcast  
Wind Chill: 36°   Ceiling: 2700
Heat Index: 43°   Visibility: 9mi
Dew Point: 37°   Wind: 13mph
Humidity: 81%   Direction: 20°NNE
Pressure: 30.15"   Gusts: 18mph
Location:  44.53°N, 78.75°W
Report Text: CYPQ 220300Z AUTO 02011G16KT 9SM OVC027 06/03 A3015 RMK SLP215
Loading
Personal Weather Stations






























Interactive Weather Map
Tropical Storm Tracking
New forecast layout! Learn more

10-Day Weather Forecast

Advertisements
Track Severe Weather on mobile